Aviation Digital Data Service (ADDS)

Output produced by METARs form (0556 UTC 29 May 2017)
found at http://www.aviationweather.gov/adds/metars/
 
RCTP 290530Z 07017KT 9999 FEW025 31/24 Q1008 NOSIG RMK A2979
TAF RCTP 290500Z 2906/3012 05013KT 9999 FEW020 BKN070 
     TEMPO 2906/2910 04020KT 
     BECMG 2910/2912 08010KT 
     TEMPO 2918/2924 13005KT 
     BECMG 3000/3002 01005KT 
     TEMPO 3003/3009 33008KT FEW010 BKN020
       
RCMQ 290530Z 33009KT 9999 FEW010 SCT025 BKN050 31/24 Q1009 NOSIG RMK A2980
TAF RCMQ 290500Z 2906/3006 32006KT 8000 FEW010 SCT025 BKN050 TX29/2906Z TN22/2921Z 
     BECMG 2909/2912 02004KT FEW010 SCT030 BKN060 
     BECMG 2920/2923 6000 FEW010 BKN020 BKN040 
     BECMG 3000/3003 32006KT 8000 FEW010 SCT025 BKN050 
     TEMPO 3004/3005 6000 -RA FEW010 BKN020 BKN040
       
RCFN 290547Z 05012G22KT 360V090 9999 -RA FEW014 SCT032 BKN050 27/23 Q1010 NOSIG RMK A2984
TAF RCFN 290500Z 2906/3006 06005KT 9999 FEW015 BKN032 
     TEMPO 2906/2910 07010KT FEW010 BKN018 FEW020CB BKN040 
     BECMG 2910/2912 35005KT 
     BECMG 3000/3002 06005KT 
     TEMPO 3004/3006 17005KT 4000 SHRA FEW010 BKN016 FEW018CB BKN030 
       
RCKH 290530Z 24010KT 210V280 9999 FEW018 SCT035 BKN120 30/23 Q1009 NOSIG RMK A2981
TAF RCKH 290500Z 2906/3012 28008KT 9999 FEW015 SCT050 BKN090 
     TEMPO 2906/2909 FEW010 BKN022 
     BECMG 2910/2912 34005KT FEW015 BKN032 
     TEMPO 2920/2924 03005KT 5000 BR 
     BECMG 3000/3002 26008KT 
     BECMG 3007/3009 17010KT
       
RCSS 290551Z 08015KT 9999 FEW022 SCT030 30/22 Q1009 WS R10 NOSIG RMK A2981
TAF RCSS 290500Z 2906/3006 09010KT 9999 FEW015 SCT120 
     TEMPO 2906/2910 08015KT 
     TEMPO 3004/3006 12005KT 5000 SHRA FEW010 BKN020
       
RCNN 290530Z 28009KT 9999 FEW012 BKN080 29/22 Q1008 NOSIG RMK A2978
TAF RCNN 290500Z 2906/3006 28004KT 9999 FEW012 BKN060 TX30/2906Z TN24/2921Z 
     BECMG 2920/2923 6000 
     BECMG 2924/3002 8000 FEW012 BKN050 
     TEMPO 3003/3005 -RA